sensor_id;sensor_type;location;lat;lon;timestamp;P1;durP1;ratioP1;P2;durP2;ratioP2
2966;SDS011;1493;51.496;7.210;2023-11-18T00:00:07;29.70;;;16.40;;
2966;SDS011;1493;51.496;7.210;2023-11-18T00:02:40;32.70;;;15.57;;
2966;SDS011;1493;51.496;7.210;2023-11-18T00:05:11;25.50;;;14.00;;
2966;SDS011;1493;51.496;7.210;2023-11-18T00:07:38;27.50;;;13.57;;
2966;SDS011;1493;51.496;7.210;2023-11-18T00:10:06;26.50;;;13.53;;
2966;SDS011;1493;51.496;7.210;2023-11-18T00:12:33;26.83;;;14.10;;
2966;SDS011;1493;51.496;7.210;2023-11-18T00:15:00;27.50;;;14.80;;
2966;SDS011;1493;51.496;7.210;2023-11-18T00:17:28;28.70;;;13.60;;
2966;SDS011;1493;51.496;7.210;2023-11-18T00:19:57;25.90;;;11.70;;
2966;SDS011;1493;51.496;7.210;2023-11-18T00:22:24;29.67;;;13.57;;
2966;SDS011;1493;51.496;7.210;2023-11-18T00:24:52;23.33;;;13.70;;
2966;SDS011;1493;51.496;7.210;2023-11-18T00:27:20;31.67;;;15.73;;
2966;SDS011;1493;51.496;7.210;2023-11-18T00:29:50;24.73;;;14.57;;
2966;SDS011;1493;51.496;7.210;2023-11-18T00:32:18;20.47;;;12.43;;
2966;SDS011;1493;51.496;7.210;2023-11-18T00:34:44;21.60;;;13.13;;
2966;SDS011;1493;51.496;7.210;2023-11-18T00:37:13;24.47;;;12.67;;
2966;SDS011;1493;51.496;7.210;2023-11-18T00:39:39;26.50;;;11.97;;
2966;SDS011;1493;51.496;7.210;2023-11-18T00:42:06;26.00;;;13.33;;
2966;SDS011;1493;51.496;7.210;2023-11-18T00:44:33;21.50;;;13.57;;
2966;SDS011;1493;51.496;7.210;2023-11-18T00:47:00;23.20;;;12.20;;
2966;SDS011;1493;51.496;7.210;2023-11-18T00:49:27;21.03;;;11.83;;
2966;SDS011;1493;51.496;7.210;2023-11-18T00:51:55;19.80;;;12.27;;
2966;SDS011;1493;51.496;7.210;2023-11-18T00:54:23;23.17;;;13.20;;
2966;SDS011;1493;51.496;7.210;2023-11-18T00:56:50;20.13;;;10.63;;
2966;SDS011;1493;51.496;7.210;2023-11-18T00:59:17;28.23;;;14.50;;
2966;SDS011;1493;51.496;7.210;2023-11-18T01:01:43;23.60;;;13.70;;
2966;SDS011;1493;51.496;7.210;2023-11-18T01:04:10;26.60;;;13.27;;
2966;SDS011;1493;51.496;7.210;2023-11-18T01:06:37;18.73;;;10.83;;
2966;SDS011;1493;51.496;7.210;2023-11-18T01:09:04;20.60;;;11.83;;
2966;SDS011;1493;51.496;7.210;2023-11-18T01:11:35;22.60;;;13.33;;
2966;SDS011;1493;51.496;7.210;2023-11-18T01:14:02;26.90;;;11.20;;
2966;SDS011;1493;51.496;7.210;2023-11-18T01:16:29;23.83;;;12.93;;
2966;SDS011;1493;51.496;7.210;2023-11-18T01:18:56;27.30;;;13.17;;
2966;SDS011;1493;51.496;7.210;2023-11-18T01:21:23;19.30;;;12.87;;
2966;SDS011;1493;51.496;7.210;2023-11-18T01:23:50;19.93;;;11.53;;
2966;SDS011;1493;51.496;7.210;2023-11-18T01:26:16;23.17;;;12.23;;
2966;SDS011;1493;51.496;7.210;2023-11-18T01:28:45;22.67;;;12.70;;
2966;SDS011;1493;51.496;7.210;2023-11-18T01:31:11;18.60;;;11.63;;
2966;SDS011;1493;51.496;7.210;2023-11-18T01:33:39;25.57;;;11.80;;
2966;SDS011;1493;51.496;7.210;2023-11-18T01:36:07;18.37;;;11.77;;
2966;SDS011;1493;51.496;7.210;2023-11-18T01:38:34;22.53;;;12.33;;
2966;SDS011;1493;51.496;7.210;2023-11-18T01:41:02;22.30;;;11.30;;
2966;SDS011;1493;51.496;7.210;2023-11-18T01:43:30;16.97;;;10.70;;
2966;SDS011;1493;51.496;7.210;2023-11-18T01:46:02;22.50;;;11.80;;
2966;SDS011;1493;51.496;7.210;2023-11-18T01:48:32;24.60;;;14.60;;
2966;SDS011;1493;51.496;7.210;2023-11-18T01:50:59;18.60;;;11.13;;
2966;SDS011;1493;51.496;7.210;2023-11-18T01:53:30;24.70;;;10.17;;
2966;SDS011;1493;51.496;7.210;2023-11-18T01:55:58;14.97;;;10.07;;
2966;SDS011;1493;51.496;7.210;2023-11-18T01:58:25;20.93;;;12.10;;
2966;SDS011;1493;51.496;7.210;2023-11-18T02:00:52;18.67;;;10.10;;
2966;SDS011;1493;51.496;7.210;2023-11-18T02:03:21;17.73;;;9.83;;
2966;SDS011;1493;51.496;7.210;2023-11-18T02:05:48;17.80;;;9.33;;
2966;SDS011;1493;51.496;7.210;2023-11-18T02:08:16;15.87;;;10.00;;
2966;SDS011;1493;51.496;7.210;2023-11-18T02:10:46;19.10;;;11.90;;
2966;SDS011;1493;51.496;7.210;2023-11-18T02:13:19;17.80;;;8.70;;
2966;SDS011;1493;51.496;7.210;2023-11-18T02:15:52;17.30;;;11.77;;
2966;SDS011;1493;51.496;7.210;2023-11-18T02:18:21;22.80;;;11.50;;
2966;SDS011;1493;51.496;7.210;2023-11-18T02:20:50;17.10;;;11.00;;
2966;SDS011;1493;51.496;7.210;2023-11-18T02:23:18;17.17;;;9.43;;
2966;SDS011;1493;51.496;7.210;2023-11-18T02:25:48;18.10;;;9.33;;
2966;SDS011;1493;51.496;7.210;2023-11-18T02:28:15;20.47;;;10.90;;
2966;SDS011;1493;51.496;7.210;2023-11-18T02:30:43;16.90;;;11.60;;
2966;SDS011;1493;51.496;7.210;2023-11-18T02:33:11;19.27;;;10.13;;
2966;SDS011;1493;51.496;7.210;2023-11-18T02:35:45;15.73;;;9.33;;
2966;SDS011;1493;51.496;7.210;2023-11-18T02:38:18;15.23;;;10.07;;
2966;SDS011;1493;51.496;7.210;2023-11-18T02:40:51;17.27;;;10.17;;
2966;SDS011;1493;51.496;7.210;2023-11-18T02:43:22;15.53;;;9.70;;
2966;SDS011;1493;51.496;7.210;2023-11-18T02:45:50;15.20;;;9.00;;
2966;SDS011;1493;51.496;7.210;2023-11-18T02:48:19;18.90;;;10.17;;
2966;SDS011;1493;51.496;7.210;2023-11-18T02:50:46;18.33;;;9.40;;
2966;SDS011;1493;51.496;7.210;2023-11-18T02:53:13;20.43;;;10.93;;
2966;SDS011;1493;51.496;7.210;2023-11-18T02:55:40;20.10;;;11.07;;
2966;SDS011;1493;51.496;7.210;2023-11-18T02:58:08;18.13;;;9.47;;
2966;SDS011;1493;51.496;7.210;2023-11-18T03:00:35;15.93;;;9.97;;
2966;SDS011;1493;51.496;7.210;2023-11-18T03:03:03;18.37;;;10.00;;
2966;SDS011;1493;51.496;7.210;2023-11-18T03:05:30;14.70;;;8.47;;
2966;SDS011;1493;51.496;7.210;2023-11-18T03:07:57;17.97;;;10.13;;
2966;SDS011;1493;51.496;7.210;2023-11-18T03:10:24;14.93;;;9.47;;
2966;SDS011;1493;51.496;7.210;2023-11-18T03:12:52;15.00;;;9.50;;
2966;SDS011;1493;51.496;7.210;2023-11-18T03:15:21;18.50;;;9.47;;
2966;SDS011;1493;51.496;7.210;2023-11-18T03:17:48;16.47;;;10.17;;
2966;SDS011;1493;51.496;7.210;2023-11-18T03:20:16;16.33;;;10.53;;
2966;SDS011;1493;51.496;7.210;2023-11-18T03:22:43;20.83;;;9.70;;
2966;SDS011;1493;51.496;7.210;2023-11-18T03:25:10;16.10;;;11.13;;
2966;SDS011;1493;51.496;7.210;2023-11-18T03:27:38;14.40;;;8.90;;
2966;SDS011;1493;51.496;7.210;2023-11-18T03:30:05;19.20;;;9.40;;
2966;SDS011;1493;51.496;7.210;2023-11-18T03:32:34;19.93;;;9.93;;
2966;SDS011;1493;51.496;7.210;2023-11-18T03:35:02;14.63;;;9.50;;
2966;SDS011;1493;51.496;7.210;2023-11-18T03:37:29;14.90;;;9.87;;
2966;SDS011;1493;51.496;7.210;2023-11-18T03:39:56;18.10;;;9.93;;
2966;SDS011;1493;51.496;7.210;2023-11-18T03:42:23;14.53;;;9.17;;
2966;SDS011;1493;51.496;7.210;2023-11-18T03:44:50;13.43;;;9.17;;
2966;SDS011;1493;51.496;7.210;2023-11-18T03:47:16;14.00;;;9.50;;
2966;SDS011;1493;51.496;7.210;2023-11-18T03:49:44;17.10;;;10.33;;
2966;SDS011;1493;51.496;7.210;2023-11-18T03:52:11;16.33;;;9.50;;
2966;SDS011;1493;51.496;7.210;2023-11-18T03:54:38;16.07;;;9.10;;
2966;SDS011;1493;51.496;7.210;2023-11-18T03:57:05;16.27;;;9.83;;
2966;SDS011;1493;51.496;7.210;2023-11-18T03:59:32;19.00;;;10.23;;
2966;SDS011;1493;51.496;7.210;2023-11-18T04:01:58;16.90;;;9.57;;
2966;SDS011;1493;51.496;7.210;2023-11-18T04:04:25;14.90;;;8.80;;
2966;SDS011;1493;51.496;7.210;2023-11-18T04:06:55;13.73;;;8.83;;
2966;SDS011;1493;51.496;7.210;2023-11-18T04:09:22;17.63;;;8.73;;
2966;SDS011;1493;51.496;7.210;2023-11-18T04:11:48;15.77;;;8.70;;
2966;SDS011;1493;51.496;7.210;2023-11-18T04:14:16;15.83;;;9.13;;
2966;SDS011;1493;51.496;7.210;2023-11-18T04:16:44;15.63;;;9.83;;
2966;SDS011;1493;51.496;7.210;2023-11-18T04:19:11;13.87;;;9.20;;
2966;SDS011;1493;51.496;7.210;2023-11-18T04:21:38;16.40;;;9.33;;
2966;SDS011;1493;51.496;7.210;2023-11-18T04:24:07;15.50;;;9.93;;
2966;SDS011;1493;51.496;7.210;2023-11-18T04:26:34;15.07;;;10.40;;
2966;SDS011;1493;51.496;7.210;2023-11-18T04:29:02;20.27;;;10.20;;
2966;SDS011;1493;51.496;7.210;2023-11-18T04:31:29;14.43;;;9.13;;
2966;SDS011;1493;51.496;7.210;2023-11-18T04:33:56;14.53;;;9.27;;
2966;SDS011;1493;51.496;7.210;2023-11-18T04:36:22;13.40;;;9.23;;
2966;SDS011;1493;51.496;7.210;2023-11-18T04:38:51;15.57;;;9.77;;
2966;SDS011;1493;51.496;7.210;2023-11-18T04:41:19;14.77;;;9.73;;
2966;SDS011;1493;51.496;7.210;2023-11-18T04:43:47;14.50;;;9.27;;
2966;SDS011;1493;51.496;7.210;2023-11-18T04:46:15;15.53;;;9.30;;
2966;SDS011;1493;51.496;7.210;2023-11-18T04:48:42;15.73;;;9.37;;
2966;SDS011;1493;51.496;7.210;2023-11-18T04:51:09;14.90;;;8.07;;
2966;SDS011;1493;51.496;7.210;2023-11-18T04:53:37;14.50;;;9.07;;
2966;SDS011;1493;51.496;7.210;2023-11-18T04:56:04;14.23;;;9.53;;
2966;SDS011;1493;51.496;7.210;2023-11-18T04:58:36;14.97;;;9.03;;
2966;SDS011;1493;51.496;7.210;2023-11-18T05:01:03;13.57;;;8.20;;
2966;SDS011;1493;51.496;7.210;2023-11-18T05:03:30;15.70;;;9.10;;
2966;SDS011;1493;51.496;7.210;2023-11-18T05:05:57;17.93;;;10.07;;
2966;SDS011;1493;51.496;7.210;2023-11-18T05:08:24;14.93;;;9.30;;
2966;SDS011;1493;51.496;7.210;2023-11-18T05:10:51;13.77;;;8.23;;
2966;SDS011;1493;51.496;7.210;2023-11-18T05:13:19;13.67;;;9.43;;
2966;SDS011;1493;51.496;7.210;2023-11-18T05:15:48;13.40;;;9.10;;
2966;SDS011;1493;51.496;7.210;2023-11-18T05:18:15;14.43;;;9.10;;
2966;SDS011;1493;51.496;7.210;2023-11-18T05:20:42;12.63;;;9.33;;
2966;SDS011;1493;51.496;7.210;2023-11-18T05:23:09;15.17;;;9.07;;
2966;SDS011;1493;51.496;7.210;2023-11-18T05:25:36;17.80;;;9.47;;
2966;SDS011;1493;51.496;7.210;2023-11-18T05:28:05;17.90;;;9.80;;
2966;SDS011;1493;51.496;7.210;2023-11-18T05:30:33;13.73;;;9.10;;
2966;SDS011;1493;51.496;7.210;2023-11-18T05:33:03;13.10;;;9.27;;
2966;SDS011;1493;51.496;7.210;2023-11-18T05:35:30;13.93;;;8.77;;
2966;SDS011;1493;51.496;7.210;2023-11-18T05:37:57;15.40;;;9.67;;
2966;SDS011;1493;51.496;7.210;2023-11-18T05:40:25;13.40;;;9.27;;
2966;SDS011;1493;51.496;7.210;2023-11-18T05:42:53;14.30;;;9.27;;
2966;SDS011;1493;51.496;7.210;2023-11-18T05:45:20;16.07;;;9.73;;
2966;SDS011;1493;51.496;7.210;2023-11-18T05:47:56;13.07;;;8.97;;
2966;SDS011;1493;51.496;7.210;2023-11-18T05:50:25;13.50;;;8.77;;
2966;SDS011;1493;51.496;7.210;2023-11-18T05:52:52;13.40;;;9.10;;
2966;SDS011;1493;51.496;7.210;2023-11-18T05:55:19;18.10;;;10.30;;
2966;SDS011;1493;51.496;7.210;2023-11-18T05:57:46;13.17;;;8.70;;
2966;SDS011;1493;51.496;7.210;2023-11-18T06:00:13;11.80;;;8.67;;
2966;SDS011;1493;51.496;7.210;2023-11-18T06:02:44;14.33;;;9.17;;
2966;SDS011;1493;51.496;7.210;2023-11-18T06:05:11;15.90;;;9.63;;
2966;SDS011;1493;51.496;7.210;2023-11-18T06:07:40;12.77;;;7.80;;
2966;SDS011;1493;51.496;7.210;2023-11-18T06:10:08;13.87;;;8.80;;
2966;SDS011;1493;51.496;7.210;2023-11-18T06:12:37;14.17;;;9.43;;
2966;SDS011;1493;51.496;7.210;2023-11-18T06:15:06;14.23;;;9.07;;
2966;SDS011;1493;51.496;7.210;2023-11-18T06:17:39;19.70;;;10.77;;
2966;SDS011;1493;51.496;7.210;2023-11-18T06:20:07;14.07;;;9.77;;
2966;SDS011;1493;51.496;7.210;2023-11-18T06:22:35;15.53;;;9.93;;
2966;SDS011;1493;51.496;7.210;2023-11-18T06:25:04;13.00;;;9.17;;
2966;SDS011;1493;51.496;7.210;2023-11-18T06:27:32;14.90;;;9.13;;
2966;SDS011;1493;51.496;7.210;2023-11-18T06:29:59;14.83;;;9.27;;
2966;SDS011;1493;51.496;7.210;2023-11-18T06:32:26;18.27;;;10.70;;
2966;SDS011;1493;51.496;7.210;2023-11-18T06:34:52;14.30;;;10.10;;
2966;SDS011;1493;51.496;7.210;2023-11-18T06:37:20;16.00;;;9.97;;
2966;SDS011;1493;51.496;7.210;2023-11-18T06:39:47;15.20;;;9.97;;
2966;SDS011;1493;51.496;7.210;2023-11-18T06:42:15;17.63;;;11.20;;
2966;SDS011;1493;51.496;7.210;2023-11-18T06:44:42;17.67;;;10.73;;
2966;SDS011;1493;51.496;7.210;2023-11-18T06:47:14;18.00;;;11.60;;
2966;SDS011;1493;51.496;7.210;2023-11-18T06:49:44;16.33;;;11.50;;
2966;SDS011;1493;51.496;7.210;2023-11-18T06:52:12;18.10;;;11.50;;
2966;SDS011;1493;51.496;7.210;2023-11-18T06:54:40;20.00;;;11.73;;
2966;SDS011;1493;51.496;7.210;2023-11-18T06:57:07;23.23;;;12.93;;
2966;SDS011;1493;51.496;7.210;2023-11-18T06:59:35;14.93;;;10.00;;
2966;SDS011;1493;51.496;7.210;2023-11-18T07:02:02;15.60;;;10.77;;
2966;SDS011;1493;51.496;7.210;2023-11-18T07:04:31;17.70;;;11.90;;
2966;SDS011;1493;51.496;7.210;2023-11-18T07:06:57;16.27;;;10.10;;
2966;SDS011;1493;51.496;7.210;2023-11-18T07:09:24;14.90;;;10.50;;
2966;SDS011;1493;51.496;7.210;2023-11-18T07:11:51;18.90;;;12.03;;
2966;SDS011;1493;51.496;7.210;2023-11-18T07:14:21;16.33;;;10.80;;
2966;SDS011;1493;51.496;7.210;2023-11-18T07:16:52;16.93;;;10.60;;
2966;SDS011;1493;51.496;7.210;2023-11-18T07:19:19;16.17;;;11.60;;
2966;SDS011;1493;51.496;7.210;2023-11-18T07:21:46;16.93;;;11.93;;
2966;SDS011;1493;51.496;7.210;2023-11-18T07:24:13;17.00;;;11.73;;
2966;SDS011;1493;51.496;7.210;2023-11-18T07:26:39;15.67;;;10.27;;
2966;SDS011;1493;51.496;7.210;2023-11-18T07:29:06;17.10;;;10.77;;
2966;SDS011;1493;51.496;7.210;2023-11-18T07:31:33;16.90;;;11.20;;
2966;SDS011;1493;51.496;7.210;2023-11-18T07:34:03;17.60;;;11.00;;
2966;SDS011;1493;51.496;7.210;2023-11-18T07:36:30;15.87;;;11.70;;
2966;SDS011;1493;51.496;7.210;2023-11-18T07:38:57;17.13;;;10.90;;
2966;SDS011;1493;51.496;7.210;2023-11-18T07:41:26;15.50;;;10.20;;
2966;SDS011;1493;51.496;7.210;2023-11-18T07:43:52;17.70;;;11.03;;
2966;SDS011;1493;51.496;7.210;2023-11-18T07:46:20;16.80;;;10.70;;
2966;SDS011;1493;51.496;7.210;2023-11-18T07:48:48;15.17;;;10.70;;
2966;SDS011;1493;51.496;7.210;2023-11-18T07:51:16;14.43;;;10.57;;
2966;SDS011;1493;51.496;7.210;2023-11-18T07:53:44;14.70;;;9.90;;
2966;SDS011;1493;51.496;7.210;2023-11-18T07:56:11;12.03;;;9.07;;
2966;SDS011;1493;51.496;7.210;2023-11-18T07:58:38;18.17;;;11.17;;
2966;SDS011;1493;51.496;7.210;2023-11-18T08:01:04;14.37;;;9.53;;
2966;SDS011;1493;51.496;7.210;2023-11-18T08:03:32;12.57;;;9.10;;
2966;SDS011;1493;51.496;7.210;2023-11-18T08:05:59;13.70;;;9.90;;
2966;SDS011;1493;51.496;7.210;2023-11-18T08:08:28;13.83;;;9.23;;
2966;SDS011;1493;51.496;7.210;2023-11-18T08:10:55;13.90;;;10.03;;
2966;SDS011;1493;51.496;7.210;2023-11-18T08:13:23;16.10;;;10.03;;
2966;SDS011;1493;51.496;7.210;2023-11-18T08:15:50;15.33;;;9.97;;
2966;SDS011;1493;51.496;7.210;2023-11-18T08:18:17;17.10;;;9.93;;
2966;SDS011;1493;51.496;7.210;2023-11-18T08:20:46;13.70;;;9.27;;
2966;SDS011;1493;51.496;7.210;2023-11-18T08:23:13;16.43;;;9.67;;
2966;SDS011;1493;51.496;7.210;2023-11-18T08:25:41;15.43;;;9.73;;
2966;SDS011;1493;51.496;7.210;2023-11-18T08:28:09;13.43;;;8.83;;
2966;SDS011;1493;51.496;7.210;2023-11-18T08:30:37;15.87;;;9.60;;
2966;SDS011;1493;51.496;7.210;2023-11-18T08:33:04;12.33;;;8.30;;
2966;SDS011;1493;51.496;7.210;2023-11-18T08:35:33;13.33;;;8.60;;
2966;SDS011;1493;51.496;7.210;2023-11-18T08:38:00;14.90;;;8.73;;
2966;SDS011;1493;51.496;7.210;2023-11-18T08:40:29;13.67;;;8.90;;
2966;SDS011;1493;51.496;7.210;2023-11-18T08:42:57;10.83;;;7.27;;
2966;SDS011;1493;51.496;7.210;2023-11-18T08:45:24;10.80;;;7.97;;
2966;SDS011;1493;51.496;7.210;2023-11-18T08:47:55;10.90;;;7.60;;
2966;SDS011;1493;51.496;7.210;2023-11-18T08:50:22;11.93;;;8.43;;
2966;SDS011;1493;51.496;7.210;2023-11-18T08:52:50;11.37;;;7.67;;
2966;SDS011;1493;51.496;7.210;2023-11-18T08:55:19;13.60;;;7.40;;
2966;SDS011;1493;51.496;7.210;2023-11-18T08:57:50;11.60;;;7.63;;
2966;SDS011;1493;51.496;7.210;2023-11-18T09:00:30;12.00;;;7.87;;
2966;SDS011;1493;51.496;7.210;2023-11-18T09:03:15;10.17;;;7.20;;
2966;SDS011;1493;51.496;7.210;2023-11-18T09:05:54;8.93;;;6.40;;
2966;SDS011;1493;51.496;7.210;2023-11-18T09:08:29;10.57;;;6.93;;
2966;SDS011;1493;51.496;7.210;2023-11-18T09:11:00;12.17;;;7.80;;
2966;SDS011;1493;51.496;7.210;2023-11-18T09:13:28;11.77;;;7.17;;
2966;SDS011;1493;51.496;7.210;2023-11-18T09:15:58;11.97;;;7.70;;
2966;SDS011;1493;51.496;7.210;2023-11-18T09:18:26;11.10;;;6.53;;
2966;SDS011;1493;51.496;7.210;2023-11-18T09:20:53;11.27;;;7.00;;
2966;SDS011;1493;51.496;7.210;2023-11-18T09:23:21;12.83;;;7.90;;
2966;SDS011;1493;51.496;7.210;2023-11-18T09:25:50;15.50;;;8.43;;
2966;SDS011;1493;51.496;7.210;2023-11-18T09:28:18;10.27;;;6.53;;
2966;SDS011;1493;51.496;7.210;2023-11-18T09:30:46;12.10;;;7.10;;
2966;SDS011;1493;51.496;7.210;2023-11-18T09:33:20;11.70;;;8.00;;
2966;SDS011;1493;51.496;7.210;2023-11-18T09:35:57;10.20;;;6.93;;
2966;SDS011;1493;51.496;7.210;2023-11-18T09:38:25;10.87;;;7.40;;
2966;SDS011;1493;51.496;7.210;2023-11-18T09:40:54;8.80;;;6.40;;
2966;SDS011;1493;51.496;7.210;2023-11-18T09:43:21;13.37;;;7.10;;
2966;SDS011;1493;51.496;7.210;2023-11-18T09:45:49;9.53;;;6.90;;
2966;SDS011;1493;51.496;7.210;2023-11-18T09:48:21;9.70;;;6.90;;
2966;SDS011;1493;51.496;7.210;2023-11-18T09:50:51;10.60;;;6.37;;
2966;SDS011;1493;51.496;7.210;2023-11-18T09:53:19;9.80;;;7.93;;
2966;SDS011;1493;51.496;7.210;2023-11-18T09:55:54;14.30;;;7.27;;
2966;SDS011;1493;51.496;7.210;2023-11-18T09:58:28;12.80;;;7.07;;
2966;SDS011;1493;51.496;7.210;2023-11-18T10:01:06;13.20;;;7.13;;
2966;SDS011;1493;51.496;7.210;2023-11-18T10:03:40;10.43;;;7.37;;
2966;SDS011;1493;51.496;7.210;2023-11-18T10:06:11;13.87;;;8.33;;
2966;SDS011;1493;51.496;7.210;2023-11-18T10:08:39;9.77;;;6.53;;
2966;SDS011;1493;51.496;7.210;2023-11-18T10:11:11;9.40;;;6.20;;
2966;SDS011;1493;51.496;7.210;2023-11-18T10:13:38;13.57;;;7.37;;
2966;SDS011;1493;51.496;7.210;2023-11-18T10:16:06;9.63;;;7.00;;
2966;SDS011;1493;51.496;7.210;2023-11-18T10:18:33;8.43;;;6.50;;
2966;SDS011;1493;51.496;7.210;2023-11-18T10:21:03;9.17;;;6.23;;
2966;SDS011;1493;51.496;7.210;2023-11-18T10:23:33;10.23;;;6.60;;
2966;SDS011;1493;51.496;7.210;2023-11-18T10:26:02;9.30;;;6.50;;
2966;SDS011;1493;51.496;7.210;2023-11-18T10:28:30;9.20;;;8.00;;
2966;SDS011;1493;51.496;7.210;2023-11-18T10:30:59;12.10;;;6.77;;
2966;SDS011;1493;51.496;7.210;2023-11-18T10:33:30;8.37;;;6.10;;
2966;SDS011;1493;51.496;7.210;2023-11-18T10:36:00;9.20;;;5.20;;
2966;SDS011;1493;51.496;7.210;2023-11-18T10:38:30;8.00;;;5.50;;
2966;SDS011;1493;51.496;7.210;2023-11-18T10:40:57;7.10;;;5.77;;
2966;SDS011;1493;51.496;7.210;2023-11-18T10:43:26;7.13;;;5.67;;
2966;SDS011;1493;51.496;7.210;2023-11-18T10:46:03;9.13;;;5.53;;
2966;SDS011;1493;51.496;7.210;2023-11-18T10:48:36;7.17;;;5.40;;
2966;SDS011;1493;51.496;7.210;2023-11-18T10:51:07;9.40;;;5.83;;
2966;SDS011;1493;51.496;7.210;2023-11-18T10:53:37;7.80;;;5.20;;
2966;SDS011;1493;51.496;7.210;2023-11-18T10:56:04;6.00;;;5.40;;
2966;SDS011;1493;51.496;7.210;2023-11-18T10:58:35;7.30;;;5.20;;
2966;SDS011;1493;51.496;7.210;2023-11-18T11:01:05;6.47;;;5.20;;
2966;SDS011;1493;51.496;7.210;2023-11-18T11:03:37;7.13;;;5.20;;
2966;SDS011;1493;51.496;7.210;2023-11-18T11:06:22;6.60;;;5.23;;
2966;SDS011;1493;51.496;7.210;2023-11-18T11:08:50;9.40;;;5.97;;
2966;SDS011;1493;51.496;7.210;2023-11-18T11:11:18;8.20;;;5.90;;
2966;SDS011;1493;51.496;7.210;2023-11-18T11:13:49;5.70;;;3.97;;
2966;SDS011;1493;51.496;7.210;2023-11-18T11:16:20;7.77;;;4.77;;
2966;SDS011;1493;51.496;7.210;2023-11-18T11:18:55;8.50;;;5.90;;
2966;SDS011;1493;51.496;7.210;2023-11-18T11:21:26;6.90;;;4.80;;
2966;SDS011;1493;51.496;7.210;2023-11-18T11:23:55;7.13;;;4.03;;
2966;SDS011;1493;51.496;7.210;2023-11-18T11:26:33;8.33;;;5.10;;
2966;SDS011;1493;51.496;7.210;2023-11-18T11:29:10;6.43;;;4.57;;
2966;SDS011;1493;51.496;7.210;2023-11-18T11:31:53;7.10;;;4.30;;
2966;SDS011;1493;51.496;7.210;2023-11-18T11:34:29;6.90;;;3.70;;
2966;SDS011;1493;51.496;7.210;2023-11-18T11:36:58;5.90;;;4.30;;
2966;SDS011;1493;51.496;7.210;2023-11-18T11:39:26;6.07;;;4.13;;
2966;SDS011;1493;51.496;7.210;2023-11-18T11:41:55;5.40;;;4.10;;
2966;SDS011;1493;51.496;7.210;2023-11-18T11:44:24;5.97;;;4.80;;
2966;SDS011;1493;51.496;7.210;2023-11-18T11:46:54;7.93;;;5.00;;
2966;SDS011;1493;51.496;7.210;2023-11-18T11:49:24;5.63;;;4.37;;
2966;SDS011;1493;51.496;7.210;2023-11-18T11:51:55;8.73;;;4.70;;
2966;SDS011;1493;51.496;7.210;2023-11-18T11:54:35;14.77;;;5.00;;
2966;SDS011;1493;51.496;7.210;2023-11-18T11:57:10;8.13;;;5.00;;
2966;SDS011;1493;51.496;7.210;2023-11-18T11:59:55;6.50;;;3.23;;
2966;SDS011;1493;51.496;7.210;2023-11-18T12:02:22;8.37;;;5.27;;
2966;SDS011;1493;51.496;7.210;2023-11-18T12:04:54;6.60;;;4.60;;
2966;SDS011;1493;51.496;7.210;2023-11-18T12:07:25;6.57;;;4.87;;
2966;SDS011;1493;51.496;7.210;2023-11-18T12:09:55;8.33;;;4.60;;
2966;SDS011;1493;51.496;7.210;2023-11-18T12:12:22;11.97;;;4.80;;
2966;SDS011;1493;51.496;7.210;2023-11-18T12:14:51;6.63;;;5.23;;
2966;SDS011;1493;51.496;7.210;2023-11-18T12:17:21;10.50;;;5.03;;
2966;SDS011;1493;51.496;7.210;2023-11-18T12:19:49;12.60;;;6.73;;
2966;SDS011;1493;51.496;7.210;2023-11-18T12:22:25;9.20;;;5.20;;
2966;SDS011;1493;51.496;7.210;2023-11-18T12:28:11;6.37;;;5.00;;
2966;SDS011;1493;51.496;7.210;2023-11-18T12:30:42;13.03;;;6.33;;
2966;SDS011;1493;51.496;7.210;2023-11-18T12:33:21;7.90;;;5.17;;
2966;SDS011;1493;51.496;7.210;2023-11-18T12:35:57;6.70;;;4.77;;
2966;SDS011;1493;51.496;7.210;2023-11-18T12:39:04;10.10;;;6.90;;
2966;SDS011;1493;51.496;7.210;2023-11-18T12:42:03;14.00;;;5.27;;
2966;SDS011;1493;51.496;7.210;2023-11-18T12:44:37;13.43;;;6.37;;
2966;SDS011;1493;51.496;7.210;2023-11-18T12:47:07;12.73;;;5.80;;
2966;SDS011;1493;51.496;7.210;2023-11-18T12:49:43;34.30;;;6.37;;
2966;SDS011;1493;51.496;7.210;2023-11-18T12:52:15;9.00;;;5.57;;
2966;SDS011;1493;51.496;7.210;2023-11-18T12:54:45;9.67;;;5.10;;
2966;SDS011;1493;51.496;7.210;2023-11-18T12:57:16;7.97;;;5.10;;
2966;SDS011;1493;51.496;7.210;2023-11-18T12:59:43;6.83;;;4.77;;
2966;SDS011;1493;51.496;7.210;2023-11-18T13:02:11;12.87;;;5.53;;
2966;SDS011;1493;51.496;7.210;2023-11-18T13:04:44;7.63;;;4.53;;
2966;SDS011;1493;51.496;7.210;2023-11-18T13:07:12;8.60;;;4.90;;
2966;SDS011;1493;51.496;7.210;2023-11-18T13:09:40;9.83;;;5.37;;
2966;SDS011;1493;51.496;7.210;2023-11-18T13:12:11;6.30;;;4.87;;
2966;SDS011;1493;51.496;7.210;2023-11-18T13:14:40;11.40;;;4.83;;
2966;SDS011;1493;51.496;7.210;2023-11-18T13:17:09;8.63;;;4.80;;
2966;SDS011;1493;51.496;7.210;2023-11-18T13:19:37;9.83;;;4.90;;
2966;SDS011;1493;51.496;7.210;2023-11-18T13:22:06;6.20;;;4.70;;
2966;SDS011;1493;51.496;7.210;2023-11-18T13:24:34;9.23;;;5.30;;
2966;SDS011;1493;51.496;7.210;2023-11-18T13:27:01;5.80;;;3.90;;
2966;SDS011;1493;51.496;7.210;2023-11-18T13:29:31;8.97;;;4.93;;
2966;SDS011;1493;51.496;7.210;2023-11-18T13:31:59;8.97;;;4.80;;
2966;SDS011;1493;51.496;7.210;2023-11-18T13:34:29;6.30;;;4.50;;
2966;SDS011;1493;51.496;7.210;2023-11-18T13:36:57;6.30;;;3.90;;
2966;SDS011;1493;51.496;7.210;2023-11-18T13:39:25;5.10;;;3.90;;
2966;SDS011;1493;51.496;7.210;2023-11-18T13:41:53;8.47;;;4.53;;
2966;SDS011;1493;51.496;7.210;2023-11-18T13:44:34;7.63;;;5.00;;
2966;SDS011;1493;51.496;7.210;2023-11-18T13:47:03;6.23;;;4.30;;
2966;SDS011;1493;51.496;7.210;2023-11-18T13:49:31;6.43;;;4.33;;
2966;SDS011;1493;51.496;7.210;2023-11-18T13:51:58;10.63;;;4.10;;
2966;SDS011;1493;51.496;7.210;2023-11-18T13:54:26;4.40;;;3.23;;
2966;SDS011;1493;51.496;7.210;2023-11-18T13:56:54;6.43;;;4.27;;
2966;SDS011;1493;51.496;7.210;2023-11-18T13:59:23;4.60;;;3.67;;
2966;SDS011;1493;51.496;7.210;2023-11-18T14:01:52;7.93;;;4.43;;
2966;SDS011;1493;51.496;7.210;2023-11-18T14:04:22;5.40;;;3.87;;
2966;SDS011;1493;51.496;7.210;2023-11-18T14:06:50;5.37;;;3.70;;
2966;SDS011;1493;51.496;7.210;2023-11-18T14:09:18;7.10;;;3.97;;
2966;SDS011;1493;51.496;7.210;2023-11-18T14:11:47;8.03;;;4.23;;
2966;SDS011;1493;51.496;7.210;2023-11-18T14:14:14;7.90;;;4.00;;
2966;SDS011;1493;51.496;7.210;2023-11-18T14:16:42;6.17;;;3.73;;
2966;SDS011;1493;51.496;7.210;2023-11-18T14:19:11;5.00;;;3.17;;
2966;SDS011;1493;51.496;7.210;2023-11-18T14:21:38;4.50;;;3.30;;
2966;SDS011;1493;51.496;7.210;2023-11-18T14:24:06;5.50;;;4.00;;
2966;SDS011;1493;51.496;7.210;2023-11-18T14:26:33;4.57;;;3.50;;
2966;SDS011;1493;51.496;7.210;2023-11-18T14:29:00;5.17;;;3.50;;
2966;SDS011;1493;51.496;7.210;2023-11-18T14:31:27;5.37;;;3.60;;
2966;SDS011;1493;51.496;7.210;2023-11-18T14:33:54;7.10;;;3.77;;
2966;SDS011;1493;51.496;7.210;2023-11-18T14:36:25;7.73;;;4.30;;
2966;SDS011;1493;51.496;7.210;2023-11-18T14:38:51;6.23;;;4.13;;
2966;SDS011;1493;51.496;7.210;2023-11-18T14:41:18;5.70;;;4.30;;
2966;SDS011;1493;51.496;7.210;2023-11-18T14:43:49;4.50;;;4.07;;
2966;SDS011;1493;51.496;7.210;2023-11-18T14:46:16;5.00;;;3.30;;
2966;SDS011;1493;51.496;7.210;2023-11-18T14:48:43;3.20;;;2.40;;
2966;SDS011;1493;51.496;7.210;2023-11-18T14:51:12;6.10;;;4.30;;
2966;SDS011;1493;51.496;7.210;2023-11-18T14:53:41;4.13;;;3.13;;
2966;SDS011;1493;51.496;7.210;2023-11-18T14:56:09;9.03;;;3.40;;
2966;SDS011;1493;51.496;7.210;2023-11-18T14:58:36;5.87;;;3.23;;
2966;SDS011;1493;51.496;7.210;2023-11-18T15:01:03;7.00;;;3.30;;
2966;SDS011;1493;51.496;7.210;2023-11-18T15:03:32;4.40;;;2.80;;
2966;SDS011;1493;51.496;7.210;2023-11-18T15:05:59;6.30;;;2.50;;
2966;SDS011;1493;51.496;7.210;2023-11-18T15:08:25;5.43;;;3.50;;
2966;SDS011;1493;51.496;7.210;2023-11-18T15:10:54;5.20;;;2.70;;
2966;SDS011;1493;51.496;7.210;2023-11-18T15:13:23;3.60;;;2.90;;